sensor_id;sensor_type;location;lat;lon;timestamp;P1;durP1;ratioP1;P2;durP2;ratioP2
74867;SDS011;63419;42.262;12.210;2023-05-29T00:01:27;9.05;;;3.67;;
74867;SDS011;63419;42.262;12.210;2023-05-29T00:03:54;7.88;;;3.78;;
74867;SDS011;63419;42.262;12.210;2023-05-29T00:06:22;8.30;;;3.42;;
74867;SDS011;63419;42.262;12.210;2023-05-29T00:08:51;12.30;;;4.45;;
74867;SDS011;63419;42.262;12.210;2023-05-29T00:11:18;13.27;;;4.90;;
74867;SDS011;63419;42.262;12.210;2023-05-29T00:13:46;9.32;;;3.95;;
74867;SDS011;63419;42.262;12.210;2023-05-29T00:16:14;7.80;;;3.20;;
74867;SDS011;63419;42.262;12.210;2023-05-29T00:18:41;10.70;;;3.67;;
74867;SDS011;63419;42.262;12.210;2023-05-29T00:21:12;7.80;;;3.40;;
74867;SDS011;63419;42.262;12.210;2023-05-29T00:23:40;9.48;;;3.17;;
74867;SDS011;63419;42.262;12.210;2023-05-29T00:26:10;9.15;;;3.33;;
74867;SDS011;63419;42.262;12.210;2023-05-29T00:28:39;7.95;;;3.33;;
74867;SDS011;63419;42.262;12.210;2023-05-29T00:31:06;7.18;;;3.13;;
74867;SDS011;63419;42.262;12.210;2023-05-29T00:33:34;8.52;;;3.75;;
74867;SDS011;63419;42.262;12.210;2023-05-29T00:36:02;9.07;;;3.60;;
74867;SDS011;63419;42.262;12.210;2023-05-29T00:38:33;11.38;;;4.13;;
74867;SDS011;63419;42.262;12.210;2023-05-29T00:41:01;8.82;;;3.70;;
74867;SDS011;63419;42.262;12.210;2023-05-29T00:43:29;8.38;;;3.63;;
74867;SDS011;63419;42.262;12.210;2023-05-29T00:45:56;9.38;;;3.65;;
74867;SDS011;63419;42.262;12.210;2023-05-29T00:48:25;9.38;;;4.28;;
74867;SDS011;63419;42.262;12.210;2023-05-29T00:50:53;9.43;;;3.78;;
74867;SDS011;63419;42.262;12.210;2023-05-29T00:53:21;9.80;;;4.05;;
74867;SDS011;63419;42.262;12.210;2023-05-29T00:55:50;8.32;;;3.53;;
74867;SDS011;63419;42.262;12.210;2023-05-29T00:58:19;8.57;;;3.40;;
74867;SDS011;63419;42.262;12.210;2023-05-29T01:00:48;9.55;;;3.60;;
74867;SDS011;63419;42.262;12.210;2023-05-29T01:03:17;9.35;;;4.00;;
74867;SDS011;63419;42.262;12.210;2023-05-29T01:05:45;8.93;;;4.25;;
74867;SDS011;63419;42.262;12.210;2023-05-29T01:08:13;9.35;;;3.92;;
74867;SDS011;63419;42.262;12.210;2023-05-29T01:10:41;10.40;;;4.10;;
74867;SDS011;63419;42.262;12.210;2023-05-29T01:13:15;9.32;;;3.95;;
74867;SDS011;63419;42.262;12.210;2023-05-29T01:15:54;11.75;;;4.28;;
74867;SDS011;63419;42.262;12.210;2023-05-29T01:24:48;9.35;;;4.00;;
74867;SDS011;63419;42.262;12.210;2023-05-29T01:27:24;9.90;;;4.00;;
74867;SDS011;63419;42.262;12.210;2023-05-29T01:29:56;9.18;;;4.47;;
74867;SDS011;63419;42.262;12.210;2023-05-29T01:32:27;10.10;;;3.72;;
74867;SDS011;63419;42.262;12.210;2023-05-29T01:34:56;9.10;;;3.70;;
74867;SDS011;63419;42.262;12.210;2023-05-29T01:37:24;8.50;;;4.05;;
74867;SDS011;63419;42.262;12.210;2023-05-29T01:39:51;12.07;;;4.40;;
74867;SDS011;63419;42.262;12.210;2023-05-29T01:42:19;9.45;;;4.13;;
74867;SDS011;63419;42.262;12.210;2023-05-29T01:44:48;10.43;;;4.68;;
74867;SDS011;63419;42.262;12.210;2023-05-29T01:47:16;10.77;;;4.47;;
74867;SDS011;63419;42.262;12.210;2023-05-29T01:49:44;8.98;;;4.35;;
74867;SDS011;63419;42.262;12.210;2023-05-29T01:52:18;10.57;;;4.25;;
74867;SDS011;63419;42.262;12.210;2023-05-29T01:54:45;10.65;;;4.13;;
74867;SDS011;63419;42.262;12.210;2023-05-29T01:57:13;12.93;;;4.38;;
74867;SDS011;63419;42.262;12.210;2023-05-29T01:59:44;9.85;;;4.25;;
74867;SDS011;63419;42.262;12.210;2023-05-29T02:02:13;13.13;;;4.80;;
74867;SDS011;63419;42.262;12.210;2023-05-29T02:04:41;9.80;;;4.18;;
74867;SDS011;63419;42.262;12.210;2023-05-29T02:07:09;10.68;;;4.47;;
74867;SDS011;63419;42.262;12.210;2023-05-29T02:09:38;12.63;;;5.10;;
74867;SDS011;63419;42.262;12.210;2023-05-29T02:12:06;9.55;;;4.25;;
74867;SDS011;63419;42.262;12.210;2023-05-29T02:14:34;8.90;;;3.80;;
74867;SDS011;63419;42.262;12.210;2023-05-29T02:17:01;9.35;;;4.00;;
74867;SDS011;63419;42.262;12.210;2023-05-29T02:19:29;10.27;;;4.05;;
74867;SDS011;63419;42.262;12.210;2023-05-29T02:21:56;10.48;;;4.47;;
74867;SDS011;63419;42.262;12.210;2023-05-29T02:24:24;9.00;;;3.90;;
74867;SDS011;63419;42.262;12.210;2023-05-29T02:26:51;11.60;;;4.63;;
74867;SDS011;63419;42.262;12.210;2023-05-29T02:29:19;8.50;;;4.45;;
74867;SDS011;63419;42.262;12.210;2023-05-29T02:31:47;9.45;;;4.00;;
74867;SDS011;63419;42.262;12.210;2023-05-29T02:34:14;9.27;;;4.20;;
74867;SDS011;63419;42.262;12.210;2023-05-29T02:36:42;9.02;;;4.22;;
74867;SDS011;63419;42.262;12.210;2023-05-29T02:39:09;10.35;;;4.65;;
74867;SDS011;63419;42.262;12.210;2023-05-29T02:41:36;10.88;;;4.07;;
74867;SDS011;63419;42.262;12.210;2023-05-29T02:44:04;13.25;;;4.30;;
74867;SDS011;63419;42.262;12.210;2023-05-29T02:46:32;8.27;;;4.00;;
74867;SDS011;63419;42.262;12.210;2023-05-29T02:48:59;10.27;;;4.32;;
74867;SDS011;63419;42.262;12.210;2023-05-29T02:51:27;9.88;;;4.22;;
74867;SDS011;63419;42.262;12.210;2023-05-29T02:53:54;9.02;;;4.05;;
74867;SDS011;63419;42.262;12.210;2023-05-29T02:56:22;8.80;;;3.90;;
74867;SDS011;63419;42.262;12.210;2023-05-29T02:58:52;8.98;;;4.15;;
74867;SDS011;63419;42.262;12.210;2023-05-29T03:01:20;10.13;;;4.03;;
74867;SDS011;63419;42.262;12.210;2023-05-29T03:03:47;13.95;;;4.30;;
74867;SDS011;63419;42.262;12.210;2023-05-29T03:06:15;9.10;;;4.32;;
74867;SDS011;63419;42.262;12.210;2023-05-29T03:08:44;8.27;;;3.90;;
74867;SDS011;63419;42.262;12.210;2023-05-29T03:11:13;10.45;;;3.90;;
74867;SDS011;63419;42.262;12.210;2023-05-29T03:13:41;10.40;;;4.72;;
74867;SDS011;63419;42.262;12.210;2023-05-29T03:16:09;10.73;;;4.80;;
74867;SDS011;63419;42.262;12.210;2023-05-29T03:18:36;11.82;;;5.07;;
74867;SDS011;63419;42.262;12.210;2023-05-29T03:23:31;9.20;;;4.15;;
74867;SDS011;63419;42.262;12.210;2023-05-29T03:25:58;9.07;;;4.10;;
74867;SDS011;63419;42.262;12.210;2023-05-29T03:28:26;9.95;;;4.07;;
74867;SDS011;63419;42.262;12.210;2023-05-29T03:33:21;8.07;;;3.75;;
74867;SDS011;63419;42.262;12.210;2023-05-29T03:35:49;9.18;;;4.40;;
74867;SDS011;63419;42.262;12.210;2023-05-29T03:38:16;8.68;;;4.03;;
74867;SDS011;63419;42.262;12.210;2023-05-29T03:40:44;10.02;;;4.88;;
74867;SDS011;63419;42.262;12.210;2023-05-29T03:43:28;14.52;;;4.57;;
74867;SDS011;63419;42.262;12.210;2023-05-29T03:45:56;8.38;;;3.38;;
74867;SDS011;63419;42.262;12.210;2023-05-29T03:48:23;9.60;;;4.10;;
74867;SDS011;63419;42.262;12.210;2023-05-29T03:50:51;8.98;;;4.38;;
74867;SDS011;63419;42.262;12.210;2023-05-29T03:53:18;11.52;;;4.28;;
74867;SDS011;63419;42.262;12.210;2023-05-29T03:55:46;9.10;;;3.90;;
74867;SDS011;63419;42.262;12.210;2023-05-29T03:58:13;9.63;;;4.45;;
74867;SDS011;63419;42.262;12.210;2023-05-29T04:00:42;11.13;;;3.58;;
74867;SDS011;63419;42.262;12.210;2023-05-29T04:03:09;8.80;;;4.47;;
74867;SDS011;63419;42.262;12.210;2023-05-29T04:05:38;14.73;;;4.25;;
74867;SDS011;63419;42.262;12.210;2023-05-29T04:08:05;8.80;;;4.10;;
74867;SDS011;63419;42.262;12.210;2023-05-29T04:10:41;10.35;;;4.40;;
74867;SDS011;63419;42.262;12.210;2023-05-29T04:13:10;12.32;;;5.53;;
74867;SDS011;63419;42.262;12.210;2023-05-29T04:15:37;12.18;;;4.82;;
74867;SDS011;63419;42.262;12.210;2023-05-29T04:18:04;9.88;;;4.32;;
74867;SDS011;63419;42.262;12.210;2023-05-29T04:20:32;9.32;;;4.35;;
74867;SDS011;63419;42.262;12.210;2023-05-29T04:22:59;10.20;;;4.47;;
74867;SDS011;63419;42.262;12.210;2023-05-29T04:25:27;9.70;;;4.55;;
74867;SDS011;63419;42.262;12.210;2023-05-29T04:27:54;9.45;;;4.25;;
74867;SDS011;63419;42.262;12.210;2023-05-29T04:30:22;8.77;;;4.10;;
74867;SDS011;63419;42.262;12.210;2023-05-29T04:32:49;10.38;;;4.65;;
74867;SDS011;63419;42.262;12.210;2023-05-29T04:35:18;10.77;;;4.78;;
74867;SDS011;63419;42.262;12.210;2023-05-29T04:37:46;10.90;;;4.63;;
74867;SDS011;63419;42.262;12.210;2023-05-29T04:40:13;11.40;;;4.57;;
74867;SDS011;63419;42.262;12.210;2023-05-29T04:42:43;10.50;;;4.85;;
74867;SDS011;63419;42.262;12.210;2023-05-29T04:45:14;9.15;;;4.15;;
74867;SDS011;63419;42.262;12.210;2023-05-29T04:47:42;12.82;;;4.82;;
74867;SDS011;63419;42.262;12.210;2023-05-29T04:50:11;9.82;;;4.43;;
74867;SDS011;63419;42.262;12.210;2023-05-29T04:52:40;10.68;;;4.60;;
74867;SDS011;63419;42.262;12.210;2023-05-29T04:55:08;10.60;;;4.75;;
74867;SDS011;63419;42.262;12.210;2023-05-29T04:57:38;10.65;;;4.22;;
74867;SDS011;63419;42.262;12.210;2023-05-29T05:00:06;12.82;;;4.72;;
74867;SDS011;63419;42.262;12.210;2023-05-29T05:02:37;9.57;;;4.68;;
74867;SDS011;63419;42.262;12.210;2023-05-29T05:05:14;10.07;;;4.53;;
74867;SDS011;63419;42.262;12.210;2023-05-29T05:07:42;9.50;;;4.25;;
74867;SDS011;63419;42.262;12.210;2023-05-29T05:10:10;9.35;;;4.65;;
74867;SDS011;63419;42.262;12.210;2023-05-29T05:12:40;8.88;;;4.30;;
74867;SDS011;63419;42.262;12.210;2023-05-29T05:15:08;11.95;;;4.80;;
74867;SDS011;63419;42.262;12.210;2023-05-29T05:17:39;11.48;;;4.53;;
74867;SDS011;63419;42.262;12.210;2023-05-29T05:20:06;11.13;;;4.78;;
74867;SDS011;63419;42.262;12.210;2023-05-29T05:22:34;10.88;;;4.88;;
74867;SDS011;63419;42.262;12.210;2023-05-29T05:25:03;11.02;;;4.70;;
74867;SDS011;63419;42.262;12.210;2023-05-29T05:27:33;10.73;;;4.72;;
74867;SDS011;63419;42.262;12.210;2023-05-29T05:30:02;10.23;;;4.80;;
74867;SDS011;63419;42.262;12.210;2023-05-29T05:32:33;10.32;;;5.00;;
74867;SDS011;63419;42.262;12.210;2023-05-29T05:35:03;12.15;;;4.75;;
74867;SDS011;63419;42.262;12.210;2023-05-29T05:37:37;11.48;;;5.85;;
74867;SDS011;63419;42.262;12.210;2023-05-29T05:40:06;10.00;;;5.22;;
74867;SDS011;63419;42.262;12.210;2023-05-29T05:42:35;10.40;;;5.47;;
74867;SDS011;63419;42.262;12.210;2023-05-29T05:45:02;11.65;;;6.00;;
74867;SDS011;63419;42.262;12.210;2023-05-29T05:47:31;10.32;;;5.30;;
74867;SDS011;63419;42.262;12.210;2023-05-29T05:49:59;11.48;;;5.47;;
74867;SDS011;63419;42.262;12.210;2023-05-29T05:52:28;13.18;;;5.50;;
74867;SDS011;63419;42.262;12.210;2023-05-29T05:54:58;13.05;;;5.68;;
74867;SDS011;63419;42.262;12.210;2023-05-29T05:57:25;10.80;;;5.65;;
74867;SDS011;63419;42.262;12.210;2023-05-29T05:59:54;10.82;;;5.55;;
74867;SDS011;63419;42.262;12.210;2023-05-29T06:02:21;12.73;;;5.18;;
74867;SDS011;63419;42.262;12.210;2023-05-29T06:04:49;9.88;;;4.43;;
74867;SDS011;63419;42.262;12.210;2023-05-29T06:07:19;12.38;;;4.55;;
74867;SDS011;63419;42.262;12.210;2023-05-29T06:09:47;10.75;;;4.25;;
74867;SDS011;63419;42.262;12.210;2023-05-29T06:12:15;8.50;;;3.85;;
74867;SDS011;63419;42.262;12.210;2023-05-29T06:14:42;8.50;;;3.80;;
74867;SDS011;63419;42.262;12.210;2023-05-29T06:17:10;7.63;;;3.92;;
74867;SDS011;63419;42.262;12.210;2023-05-29T06:19:37;10.55;;;4.28;;
74867;SDS011;63419;42.262;12.210;2023-05-29T06:22:05;7.97;;;3.85;;
74867;SDS011;63419;42.262;12.210;2023-05-29T06:24:32;6.82;;;2.97;;
74867;SDS011;63419;42.262;12.210;2023-05-29T06:27:00;8.05;;;3.78;;
74867;SDS011;63419;42.262;12.210;2023-05-29T06:29:28;8.32;;;3.08;;
74867;SDS011;63419;42.262;12.210;2023-05-29T06:31:55;8.85;;;3.15;;
74867;SDS011;63419;42.262;12.210;2023-05-29T06:34:22;7.88;;;3.00;;
74867;SDS011;63419;42.262;12.210;2023-05-29T06:36:50;6.13;;;2.92;;
74867;SDS011;63419;42.262;12.210;2023-05-29T06:39:18;7.07;;;3.38;;
74867;SDS011;63419;42.262;12.210;2023-05-29T06:41:46;6.38;;;2.88;;
74867;SDS011;63419;42.262;12.210;2023-05-29T06:44:14;7.82;;;3.17;;
74867;SDS011;63419;42.262;12.210;2023-05-29T06:46:41;6.47;;;2.80;;
74867;SDS011;63419;42.262;12.210;2023-05-29T06:49:09;7.43;;;3.10;;
74867;SDS011;63419;42.262;12.210;2023-05-29T06:51:36;7.32;;;3.30;;
74867;SDS011;63419;42.262;12.210;2023-05-29T06:54:04;8.18;;;3.33;;
74867;SDS011;63419;42.262;12.210;2023-05-29T06:56:31;6.82;;;3.05;;
74867;SDS011;63419;42.262;12.210;2023-05-29T06:58:58;7.60;;;3.40;;
74867;SDS011;63419;42.262;12.210;2023-05-29T07:01:26;7.82;;;2.97;;
74867;SDS011;63419;42.262;12.210;2023-05-29T07:03:53;7.65;;;3.03;;
74867;SDS011;63419;42.262;12.210;2023-05-29T07:06:21;7.90;;;2.90;;
74867;SDS011;63419;42.262;12.210;2023-05-29T07:08:50;7.28;;;3.17;;
74867;SDS011;63419;42.262;12.210;2023-05-29T07:11:17;7.45;;;3.33;;
74867;SDS011;63419;42.262;12.210;2023-05-29T07:13:45;7.93;;;3.35;;
74867;SDS011;63419;42.262;12.210;2023-05-29T07:16:12;8.70;;;3.03;;
74867;SDS011;63419;42.262;12.210;2023-05-29T07:18:51;7.35;;;3.40;;
74867;SDS011;63419;42.262;12.210;2023-05-29T07:21:18;6.97;;;2.65;;
74867;SDS011;63419;42.262;12.210;2023-05-29T07:23:46;7.65;;;3.20;;
74867;SDS011;63419;42.262;12.210;2023-05-29T07:26:14;7.15;;;3.40;;
74867;SDS011;63419;42.262;12.210;2023-05-29T07:28:42;7.95;;;3.00;;
74867;SDS011;63419;42.262;12.210;2023-05-29T07:31:09;6.78;;;3.22;;
74867;SDS011;63419;42.262;12.210;2023-05-29T07:33:39;7.80;;;3.08;;
74867;SDS011;63419;42.262;12.210;2023-05-29T07:36:07;6.93;;;2.92;;
74867;SDS011;63419;42.262;12.210;2023-05-29T07:38:35;7.20;;;2.92;;
74867;SDS011;63419;42.262;12.210;2023-05-29T07:41:02;6.47;;;2.90;;
74867;SDS011;63419;42.262;12.210;2023-05-29T07:43:30;9.45;;;3.20;;
74867;SDS011;63419;42.262;12.210;2023-05-29T07:45:57;7.75;;;3.50;;
74867;SDS011;63419;42.262;12.210;2023-05-29T07:48:25;6.43;;;2.38;;
74867;SDS011;63419;42.262;12.210;2023-05-29T07:50:52;8.23;;;3.20;;
74867;SDS011;63419;42.262;12.210;2023-05-29T07:53:20;7.63;;;3.03;;
74867;SDS011;63419;42.262;12.210;2023-05-29T07:55:47;7.25;;;3.25;;
74867;SDS011;63419;42.262;12.210;2023-05-29T07:58:15;6.70;;;2.78;;
74867;SDS011;63419;42.262;12.210;2023-05-29T08:00:43;6.25;;;2.83;;
74867;SDS011;63419;42.262;12.210;2023-05-29T08:03:11;5.70;;;2.63;;
74867;SDS011;63419;42.262;12.210;2023-05-29T08:05:39;7.95;;;2.90;;
74867;SDS011;63419;42.262;12.210;2023-05-29T08:08:07;7.18;;;2.50;;
74867;SDS011;63419;42.262;12.210;2023-05-29T08:10:34;6.75;;;2.67;;
74867;SDS011;63419;42.262;12.210;2023-05-29T08:13:02;6.40;;;2.72;;
74867;SDS011;63419;42.262;12.210;2023-05-29T08:15:29;6.38;;;2.75;;
74867;SDS011;63419;42.262;12.210;2023-05-29T08:17:58;6.22;;;2.80;;
74867;SDS011;63419;42.262;12.210;2023-05-29T08:20:25;8.50;;;2.85;;
74867;SDS011;63419;42.262;12.210;2023-05-29T08:22:53;7.40;;;3.40;;
74867;SDS011;63419;42.262;12.210;2023-05-29T08:25:20;5.80;;;2.53;;
74867;SDS011;63419;42.262;12.210;2023-05-29T08:27:47;7.10;;;2.97;;
74867;SDS011;63419;42.262;12.210;2023-05-29T08:30:15;7.75;;;2.55;;
74867;SDS011;63419;42.262;12.210;2023-05-29T08:32:44;7.28;;;3.38;;
74867;SDS011;63419;42.262;12.210;2023-05-29T08:35:12;6.55;;;2.78;;
74867;SDS011;63419;42.262;12.210;2023-05-29T08:37:40;7.50;;;3.40;;
74867;SDS011;63419;42.262;12.210;2023-05-29T08:40:11;13.60;;;7.30;;
74867;SDS011;63419;42.262;12.210;2023-05-29T08:42:41;8.38;;;3.67;;
74867;SDS011;63419;42.262;12.210;2023-05-29T08:45:14;7.80;;;3.10;;
74867;SDS011;63419;42.262;12.210;2023-05-29T08:47:42;7.25;;;3.20;;
74867;SDS011;63419;42.262;12.210;2023-05-29T08:50:12;6.63;;;2.95;;
74867;SDS011;63419;42.262;12.210;2023-05-29T08:52:43;8.23;;;3.90;;
74867;SDS011;63419;42.262;12.210;2023-05-29T08:55:11;8.60;;;4.13;;
74867;SDS011;63419;42.262;12.210;2023-05-29T08:57:39;8.15;;;3.53;;
74867;SDS011;63419;42.262;12.210;2023-05-29T09:00:11;7.15;;;3.42;;
74867;SDS011;63419;42.262;12.210;2023-05-29T09:02:39;8.35;;;3.20;;
74867;SDS011;63419;42.262;12.210;2023-05-29T09:05:07;7.55;;;3.45;;
74867;SDS011;63419;42.262;12.210;2023-05-29T09:07:36;7.60;;;3.33;;
74867;SDS011;63419;42.262;12.210;2023-05-29T09:10:06;7.53;;;3.38;;
74867;SDS011;63419;42.262;12.210;2023-05-29T09:12:36;7.60;;;3.20;;
74867;SDS011;63419;42.262;12.210;2023-05-29T09:15:07;9.75;;;4.38;;
74867;SDS011;63419;42.262;12.210;2023-05-29T09:17:51;8.73;;;3.63;;
74867;SDS011;63419;42.262;12.210;2023-05-29T09:20:24;9.30;;;3.63;;
74867;SDS011;63419;42.262;12.210;2023-05-29T09:25:40;8.18;;;3.10;;
74867;SDS011;63419;42.262;12.210;2023-05-29T09:28:09;6.53;;;3.15;;
74867;SDS011;63419;42.262;12.210;2023-05-29T09:30:41;7.47;;;3.03;;
74867;SDS011;63419;42.262;12.210;2023-05-29T09:33:15;7.50;;;3.35;;
74867;SDS011;63419;42.262;12.210;2023-05-29T09:35:44;8.02;;;3.88;;
74867;SDS011;63419;42.262;12.210;2023-05-29T09:38:18;9.00;;;3.22;;
74867;SDS011;63419;42.262;12.210;2023-05-29T09:41:06;8.70;;;3.08;;
74867;SDS011;63419;42.262;12.210;2023-05-29T09:43:37;9.02;;;3.80;;
74867;SDS011;63419;42.262;12.210;2023-05-29T09:46:07;8.07;;;3.50;;
74867;SDS011;63419;42.262;12.210;2023-05-29T09:48:42;7.88;;;3.28;;
74867;SDS011;63419;42.262;12.210;2023-05-29T09:51:22;8.15;;;3.58;;
74867;SDS011;63419;42.262;12.210;2023-05-29T09:53:52;8.57;;;3.95;;
74867;SDS011;63419;42.262;12.210;2023-05-29T09:56:21;8.95;;;4.05;;
74867;SDS011;63419;42.262;12.210;2023-05-29T09:58:53;6.68;;;3.17;;
74867;SDS011;63419;42.262;12.210;2023-05-29T10:01:23;7.72;;;3.35;;
74867;SDS011;63419;42.262;12.210;2023-05-29T10:03:52;8.15;;;3.28;;
74867;SDS011;63419;42.262;12.210;2023-05-29T10:06:20;7.10;;;3.33;;
74867;SDS011;63419;42.262;12.210;2023-05-29T10:08:48;8.20;;;3.67;;
74867;SDS011;63419;42.262;12.210;2023-05-29T10:11:22;8.57;;;4.63;;
74867;SDS011;63419;42.262;12.210;2023-05-29T10:13:54;9.07;;;3.75;;
74867;SDS011;63419;42.262;12.210;2023-05-29T10:16:24;7.60;;;3.60;;
74867;SDS011;63419;42.262;12.210;2023-05-29T10:18:57;8.77;;;3.83;;
74867;SDS011;63419;42.262;12.210;2023-05-29T10:21:28;8.13;;;3.63;;
74867;SDS011;63419;42.262;12.210;2023-05-29T10:23:56;10.90;;;4.13;;
74867;SDS011;63419;42.262;12.210;2023-05-29T10:26:25;9.52;;;4.38;;
74867;SDS011;63419;42.262;12.210;2023-05-29T10:28:57;9.65;;;4.90;;
74867;SDS011;63419;42.262;12.210;2023-05-29T10:40:40;7.07;;;3.50;;
74867;SDS011;63419;42.262;12.210;2023-05-29T10:43:08;9.27;;;3.67;;
74867;SDS011;63419;42.262;12.210;2023-05-29T10:50:38;7.60;;;3.22;;
74867;SDS011;63419;42.262;12.210;2023-05-29T10:53:15;6.65;;;3.33;;
74867;SDS011;63419;42.262;12.210;2023-05-29T10:55:48;9.55;;;4.47;;
74867;SDS011;63419;42.262;12.210;2023-05-29T11:00:50;10.27;;;4.03;;
74867;SDS011;63419;42.262;12.210;2023-05-29T11:03:24;7.97;;;3.42;;
74867;SDS011;63419;42.262;12.210;2023-05-29T11:06:05;7.07;;;3.10;;
74867;SDS011;63419;42.262;12.210;2023-05-29T11:11:52;8.95;;;3.35;;
74867;SDS011;63419;42.262;12.210;2023-05-29T11:17:48;9.43;;;3.53;;
74867;SDS011;63419;42.262;12.210;2023-05-29T11:20:26;8.43;;;3.55;;
74867;SDS011;63419;42.262;12.210;2023-05-29T11:23:05;12.75;;;4.00;;
74867;SDS011;63419;42.262;12.210;2023-05-29T11:25:39;7.40;;;3.72;;
74867;SDS011;63419;42.262;12.210;2023-05-29T11:28:08;6.72;;;2.88;;
74867;SDS011;63419;42.262;12.210;2023-05-29T11:30:44;8.05;;;3.70;;
74867;SDS011;63419;42.262;12.210;2023-05-29T11:33:23;8.55;;;3.65;;
74867;SDS011;63419;42.262;12.210;2023-05-29T11:35:55;9.90;;;4.45;;
74867;SDS011;63419;42.262;12.210;2023-05-29T11:38:25;8.35;;;3.33;;
74867;SDS011;63419;42.262;12.210;2023-05-29T11:40:54;7.55;;;3.67;;
74867;SDS011;63419;42.262;12.210;2023-05-29T11:43:24;8.20;;;3.65;;
74867;SDS011;63419;42.262;12.210;2023-05-29T11:45:52;7.80;;;3.25;;
74867;SDS011;63419;42.262;12.210;2023-05-29T11:48:20;8.23;;;3.85;;
74867;SDS011;63419;42.262;12.210;2023-05-29T11:50:48;10.05;;;3.22;;
74867;SDS011;63419;42.262;12.210;2023-05-29T11:53:15;8.15;;;4.15;;
74867;SDS011;63419;42.262;12.210;2023-05-29T11:55:43;7.68;;;3.28;;
74867;SDS011;63419;42.262;12.210;2023-05-29T11:58:10;9.95;;;4.10;;
74867;SDS011;63419;42.262;12.210;2023-05-29T12:00:38;9.15;;;4.32;;
74867;SDS011;63419;42.262;12.210;2023-05-29T12:03:09;9.20;;;4.10;;
74867;SDS011;63419;42.262;12.210;2023-05-29T12:05:48;8.23;;;3.13;;
74867;SDS011;63419;42.262;12.210;2023-05-29T12:08:23;7.90;;;3.67;;
74867;SDS011;63419;42.262;12.210;2023-05-29T12:10:52;8.80;;;3.95;;
74867;SDS011;63419;42.262;12.210;2023-05-29T12:13:20;6.70;;;3.63;;
74867;SDS011;63419;42.262;12.210;2023-05-29T12:15:54;8.35;;;2.92;;
74867;SDS011;63419;42.262;12.210;2023-05-29T12:18:25;7.22;;;3.35;;
74867;SDS011;63419;42.262;12.210;2023-05-29T12:21:00;7.28;;;3.40;;
74867;SDS011;63419;42.262;12.210;2023-05-29T12:23:29;8.88;;;3.67;;
74867;SDS011;63419;42.262;12.210;2023-05-29T12:25:57;8.45;;;3.63;;
74867;SDS011;63419;42.262;12.210;2023-05-29T12:28:25;7.95;;;4.55;;
74867;SDS011;63419;42.262;12.210;2023-05-29T12:30:57;10.68;;;3.45;;
74867;SDS011;63419;42.262;12.210;2023-05-29T12:33:29;7.28;;;3.75;;
74867;SDS011;63419;42.262;12.210;2023-05-29T12:38:41;8.65;;;4.32;;
74867;SDS011;63419;42.262;12.210;2023-05-29T12:41:27;9.15;;;3.78;;
74867;SDS011;63419;42.262;12.210;2023-05-29T12:44:02;9.05;;;3.00;;
74867;SDS011;63419;42.262;12.210;2023-05-29T12:46:38;7.90;;;3.58;;
74867;SDS011;63419;42.262;12.210;2023-05-29T12:49:16;7.78;;;3.58;;
74867;SDS011;63419;42.262;12.210;2023-05-29T12:51:52;9.25;;;3.63;;
74867;SDS011;63419;42.262;12.210;2023-05-29T12:54:20;7.20;;;3.97;;
74867;SDS011;63419;42.262;12.210;2023-05-29T12:56:47;7.57;;;4.03;;
74867;SDS011;63419;42.262;12.210;2023-05-29T12:59:17;7.13;;;3.80;;
74867;SDS011;63419;42.262;12.210;2023-05-29T13:01:44;9.75;;;4.32;;
74867;SDS011;63419;42.262;12.210;2023-05-29T13:04:12;7.80;;;3.95;;
74867;SDS011;63419;42.262;12.210;2023-05-29T13:06:40;10.32;;;4.22;;
74867;SDS011;63419;42.262;12.210;2023-05-29T13:09:07;6.95;;;3.58;;
74867;SDS011;63419;42.262;12.210;2023-05-29T13:11:35;9.30;;;3.90;;
74867;SDS011;63419;42.262;12.210;2023-05-29T13:14:04;7.70;;;3.22;;
74867;SDS011;63419;42.262;12.210;2023-05-29T13:16:31;9.82;;;3.85;;
74867;SDS011;63419;42.262;12.210;2023-05-29T13:19:00;7.85;;;3.80;;
74867;SDS011;63419;42.262;12.210;2023-05-29T13:21:27;6.90;;;2.92;;
74867;SDS011;63419;42.262;12.210;2023-05-29T13:23:54;6.93;;;3.03;;
74867;SDS011;63419;42.262;12.210;2023-05-29T13:26:22;6.57;;;3.60;;
74867;SDS011;63419;42.262;12.210;2023-05-29T13:28:49;7.13;;;2.80;;
74867;SDS011;63419;42.262;12.210;2023-05-29T13:31:18;5.97;;;2.80;;
74867;SDS011;63419;42.262;12.210;2023-05-29T13:33:47;7.07;;;3.35;;
74867;SDS011;63419;42.262;12.210;2023-05-29T13:36:15;6.57;;;2.95;;
74867;SDS011;63419;42.262;12.210;2023-05-29T13:38:42;6.45;;;3.15;;
74867;SDS011;63419;42.262;12.210;2023-05-29T13:41:10;5.80;;;3.00;;
74867;SDS011;63419;42.262;12.210;2023-05-29T13:43:38;9.38;;;3.53;;
74867;SDS011;63419;42.262;12.210;2023-05-29T13:46:11;6.45;;;3.13;;
74867;SDS011;63419;42.262;12.210;2023-05-29T13:48:39;7.03;;;3.75;;
74867;SDS011;63419;42.262;12.210;2023-05-29T13:51:06;6.38;;;3.13;;
74867;SDS011;63419;42.262;12.210;2023-05-29T13:53:34;7.25;;;3.40;;
74867;SDS011;63419;42.262;12.210;2023-05-29T13:56:01;10.02;;;4.03;;
74867;SDS011;63419;42.262;12.210;2023-05-29T13:58:29;6.90;;;3.03;;
74867;SDS011;63419;42.262;12.210;2023-05-29T14:00:56;6.63;;;3.05;;
74867;SDS011;63419;42.262;12.210;2023-05-29T14:03:24;6.45;;;3.00;;
74867;SDS011;63419;42.262;12.210;2023-05-29T14:05:55;8.73;;;3.97;;
74867;SDS011;63419;42.262;12.210;2023-05-29T14:08:24;7.43;;;3.53;;
74867;SDS011;63419;42.262;12.210;2023-05-29T14:10:51;9.75;;;3.15;;
74867;SDS011;63419;42.262;12.210;2023-05-29T14:13:19;8.70;;;3.08;;
74867;SDS011;63419;42.262;12.210;2023-05-29T14:15:46;6.30;;;3.25;;
74867;SDS011;63419;42.262;12.210;2023-05-29T14:18:15;6.82;;;3.33;;
74867;SDS011;63419;42.262;12.210;2023-05-29T14:20:43;7.55;;;2.97;;
74867;SDS011;63419;42.262;12.210;2023-05-29T14:23:16;8.23;;;2.85;;
74867;SDS011;63419;42.262;12.210;2023-05-29T14:25:44;6.85;;;2.83;;
74867;SDS011;63419;42.262;12.210;2023-05-29T14:28:12;7.43;;;2.60;;
74867;SDS011;63419;42.262;12.210;2023-05-29T14:30:40;5.38;;;2.20;;
74867;SDS011;63419;42.262;12.210;2023-05-29T14:33:07;6.82;;;3.33;;
74867;SDS011;63419;42.262;12.210;2023-05-29T14:35:35;7.97;;;2.63;;
74867;SDS011;63419;42.262;12.210;2023-05-29T14:38:02;5.22;;;2.15;;
74867;SDS011;63419;42.262;12.210;2023-05-29T14:40:29;9.30;;;2.78;;
74867;SDS011;63419;42.262;12.210;2023-05-29T14:42:57;7.85;;;2.90;;
74867;SDS011;63419;42.262;12.210;2023-05-29T14:45:25;7.13;;;2.67;;
74867;SDS011;63419;42.262;12.210;2023-05-29T14:47:52;7.50;;;2.53;;
74867;SDS011;63419;42.262;12.210;2023-05-29T14:50:20;7.50;;;2.95;;
74867;SDS011;63419;42.262;12.210;2023-05-29T14:52:47;6.40;;;3.63;;
74867;SDS011;63419;42.262;12.210;2023-05-29T14:55:15;6.85;;;3.30;;
74867;SDS011;63419;42.262;12.210;2023-05-29T14:57:42;7.85;;;3.25;;
74867;SDS011;63419;42.262;12.210;2023-05-29T15:00:10;6.68;;;3.08;;
74867;SDS011;63419;42.262;12.210;2023-05-29T15:02:37;7.93;;;2.88;;
74867;SDS011;63419;42.262;12.210;2023-05-29T15:05:08;15.48;;;2.92;;
74867;SDS011;63419;42.262;12.210;2023-05-29T15:07:35;7.05;;;2.03;;
74867;SDS011;63419;42.262;12.210;2023-05-29T15:10:03;8.73;;;2.10;;
74867;SDS011;63419;42.262;12.210;2023-05-29T15:12:31;8.95;;;2.28;;
74867;SDS011;63419;42.262;12.210;2023-05-29T15:14:59;8.70;;;2.85;;
74867;SDS011;63419;42.262;12.210;2023-05-29T15:17:26;5.15;;;1.75;;
74867;SDS011;63419;42.262;12.210;2023-05-29T15:19:54;7.68;;;2.20;;
74867;SDS011;63419;42.262;12.210;2023-05-29T15:22:22;7.03;;;1.67;;